createdAt,value
2018-09-30T00:00:03.603Z,5.52
2018-09-30T00:01:03.601Z,5.49
2018-09-30T00:02:03.609Z,5.53
2018-09-30T00:03:03.576Z,5.52
2018-09-30T00:04:03.559Z,5.53
2018-09-30T00:05:03.550Z,5.59
2018-09-30T00:06:03.541Z,5.45
2018-09-30T00:07:03.552Z,5.52
2018-09-30T00:08:03.508Z,5.40
2018-09-30T00:09:03.500Z,5.40
2018-09-30T00:10:03.491Z,5.45
2018-09-30T00:11:03.477Z,5.37
2018-09-30T00:12:03.490Z,5.35
2018-09-30T00:13:03.453Z,5.46
2018-09-30T00:14:03.439Z,5.50
2018-09-30T00:15:03.438Z,5.43
2018-09-30T00:16:03.425Z,5.37
2018-09-30T00:17:03.431Z,5.41
2018-09-30T00:18:03.395Z,5.35
2018-09-30T00:19:03.390Z,5.32
2018-09-30T00:20:03.369Z,5.41
2018-09-30T00:21:03.373Z,5.37
2018-09-30T00:22:03.372Z,5.41
2018-09-30T00:23:03.340Z,5.43
2018-09-30T00:24:03.326Z,5.48
2018-09-30T00:25:03.319Z,5.34
2018-09-30T00:26:03.301Z,5.32
2018-09-30T00:27:03.308Z,5.34
2018-09-30T00:28:03.284Z,5.35
2018-09-30T00:29:03.270Z,5.22
2018-09-30T00:30:03.258Z,5.17
2018-09-30T00:31:03.269Z,5.27
2018-09-30T00:32:03.257Z,5.19
2018-09-30T00:33:03.221Z,5.17
2018-09-30T00:34:03.212Z,5.14
2018-09-30T00:35:03.200Z,5.20
2018-09-30T00:36:03.186Z,5.30
2018-09-30T00:37:03.198Z,5.35
2018-09-30T00:38:03.161Z,5.22
2018-09-30T00:39:03.155Z,5.38
2018-09-30T00:40:03.137Z,5.38
2018-09-30T00:41:03.132Z,5.30
2018-09-30T00:42:03.134Z,5.27
2018-09-30T00:43:03.104Z,5.41
2018-09-30T00:44:03.098Z,5.22
2018-09-30T00:45:03.087Z,5.16
2018-09-30T00:46:03.072Z,5.22
2018-09-30T00:47:03.082Z,5.20
2018-09-30T00:48:03.052Z,5.25
2018-09-30T00:49:03.031Z,5.22
2018-09-30T00:50:03.029Z,5.09
2018-09-30T00:51:03.012Z,5.20
2018-09-30T00:52:03.020Z,5.16
2018-09-30T00:53:02.994Z,5.14
2018-09-30T00:54:02.975Z,5.14
2018-09-30T00:55:02.962Z,5.13
2018-09-30T00:56:02.959Z,5.14
2018-09-30T00:57:02.967Z,5.01
2018-09-30T00:58:02.937Z,5.12
2018-09-30T00:59:02.916Z,5.12
2018-09-30T01:00:02.917Z,5.13
2018-09-30T01:01:02.899Z,5.22
2018-09-30T01:02:02.904Z,5.07
2018-09-30T01:03:02.872Z,5.12
2018-09-30T01:04:02.865Z,5.14
2018-09-30T01:05:02.856Z,5.13
2018-09-30T01:06:02.838Z,5.14
2018-09-30T01:07:02.852Z,4.99
2018-09-30T01:08:02.820Z,5.05
2018-09-30T01:09:02.807Z,5.01
2018-09-30T01:10:02.795Z,4.92
2018-09-30T01:11:02.786Z,5.01
2018-09-30T01:12:02.788Z,5.04
2018-09-30T01:13:02.763Z,4.98
2018-09-30T01:14:02.749Z,4.99
2018-09-30T01:15:02.741Z,5.09
2018-09-30T01:16:02.719Z,5.01
2018-09-30T01:17:02.740Z,5.13
2018-09-30T01:18:02.698Z,5.07
2018-09-30T01:19:02.691Z,5.14
2018-09-30T01:20:02.678Z,5.19
2018-09-30T01:21:02.668Z,5.14
2018-09-30T01:22:02.677Z,5.09
2018-09-30T01:23:02.644Z,5.20
2018-09-30T01:24:02.632Z,5.20
2018-09-30T01:25:02.646Z,5.16
2018-09-30T01:26:02.604Z,5.12
2018-09-30T01:27:02.616Z,5.09
2018-09-30T01:28:02.584Z,5.14
2018-09-30T01:29:02.569Z,5.09
2018-09-30T01:30:02.567Z,5.10
2018-09-30T01:31:02.551Z,4.98
2018-09-30T01:32:02.560Z,4.91
2018-09-30T01:33:02.523Z,4.95
2018-09-30T01:34:02.515Z,4.89
2018-09-30T01:35:02.507Z,4.86
2018-09-30T01:36:02.489Z,4.84
2018-09-30T01:37:02.512Z,4.95
2018-09-30T01:38:02.465Z,4.77
2018-09-30T01:39:02.466Z,4.88
2018-09-30T01:40:02.446Z,4.86
2018-09-30T01:41:02.429Z,4.76
2018-09-30T01:42:02.429Z,4.73
2018-09-30T01:43:02.437Z,4.70
2018-09-30T01:44:02.395Z,4.61
2018-09-30T01:45:02.390Z,4.67
2018-09-30T01:46:02.378Z,4.62
2018-09-30T01:47:02.364Z,4.64
2018-09-30T01:48:02.389Z,4.64
2018-09-30T01:49:02.346Z,4.64
2018-09-30T01:50:02.327Z,4.61
2018-09-30T01:51:02.315Z,4.57
2018-09-30T01:52:02.315Z,4.58
2018-09-30T01:53:02.298Z,4.64
2018-09-30T01:54:02.313Z,4.61
2018-09-30T01:55:02.277Z,4.69
2018-09-30T01:56:02.255Z,4.57
2018-09-30T01:57:02.255Z,4.59
2018-09-30T01:58:02.234Z,4.44
2018-09-30T01:59:02.228Z,4.50
2018-09-30T02:00:02.241Z,4.50
2018-09-30T02:01:02.212Z,4.51
2018-09-30T02:02:02.194Z,4.54
2018-09-30T02:03:02.175Z,4.54
2018-09-30T02:04:02.167Z,4.47
2018-09-30T02:05:02.160Z,4.37
2018-09-30T02:06:02.174Z,4.39
2018-09-30T02:07:02.144Z,4.43
2018-09-30T02:08:02.120Z,4.40
2018-09-30T02:09:02.115Z,4.40
2018-09-30T02:10:02.096Z,4.40
2018-09-30T02:11:02.090Z,4.51
2018-09-30T02:12:02.104Z,4.64
2018-09-30T02:13:02.061Z,4.51
2018-09-30T02:14:02.062Z,4.62
2018-09-30T02:15:02.056Z,4.52
2018-09-30T02:16:02.027Z,4.57
2018-09-30T02:17:02.021Z,4.51
2018-09-30T02:18:02.038Z,4.64
2018-09-30T02:19:01.998Z,4.52
2018-09-30T02:20:01.979Z,4.55
2018-09-30T02:21:01.973Z,4.46
2018-09-30T02:22:01.964Z,4.72
2018-09-30T02:23:01.952Z,4.62
2018-09-30T02:24:02.105Z,4.64
2018-09-30T02:25:01.925Z,4.55
2018-09-30T02:26:01.923Z,4.65
2018-09-30T02:27:01.905Z,4.64
2018-09-30T02:28:01.894Z,4.64
2018-09-30T02:29:01.928Z,4.47
2018-09-30T02:30:01.866Z,4.55
2018-09-30T02:31:01.861Z,4.55
2018-09-30T02:32:01.851Z,4.46
2018-09-30T02:33:01.837Z,4.51
2018-09-30T02:34:01.824Z,4.65
2018-09-30T02:35:01.830Z,4.69
2018-09-30T02:36:01.808Z,4.54
2018-09-30T02:37:01.792Z,4.46
2018-09-30T02:38:01.776Z,4.62
2018-09-30T02:39:01.765Z,4.47
2018-09-30T02:40:01.785Z,4.44
2018-09-30T02:41:01.748Z,4.46
2018-09-30T02:42:01.726Z,4.36
2018-09-30T02:43:01.722Z,4.43
2018-09-30T02:44:01.711Z,4.37
2018-09-30T02:45:01.723Z,4.39
2018-09-30T02:46:01.689Z,4.42
2018-09-30T02:47:01.684Z,4.37
2018-09-30T02:48:01.659Z,4.37
2018-09-30T02:49:01.652Z,4.34
2018-09-30T02:50:01.641Z,4.36
2018-09-30T02:51:01.654Z,4.26
2018-09-30T02:52:01.615Z,4.29
2018-09-30T02:53:01.605Z,4.25
2018-09-30T02:54:01.594Z,4.18
2018-09-30T02:55:01.583Z,4.29
2018-09-30T02:56:01.598Z,4.29
2018-09-30T02:57:01.554Z,4.29
2018-09-30T02:58:01.554Z,4.33
2018-09-30T02:59:01.539Z,4.22
2018-09-30T03:00:01.533Z,4.26
2018-09-30T03:01:01.546Z,4.24
2018-09-30T03:02:01.496Z,4.21
2018-09-30T03:03:01.485Z,4.24
2018-09-30T03:04:01.487Z,4.26
2018-09-30T03:05:01.463Z,4.25
2018-09-30T03:06:01.463Z,4.36
2018-09-30T03:07:01.474Z,4.40
2018-09-30T03:08:01.438Z,4.39
2018-09-30T03:09:01.423Z,4.25
2018-09-30T03:10:01.408Z,4.40
2018-09-30T03:11:01.408Z,4.26
2018-09-30T03:12:01.382Z,4.33
2018-09-30T03:13:01.402Z,4.26
2018-09-30T03:14:01.366Z,4.18
2018-09-30T03:15:01.353Z,4.16
2018-09-30T03:16:01.345Z,4.14
2018-09-30T03:17:01.337Z,4.18
2018-09-30T03:18:01.346Z,4.07
2018-09-30T03:19:01.311Z,4.10
2018-09-30T03:20:01.289Z,4.06
2018-09-30T03:21:01.283Z,3.98
2018-09-30T03:22:01.273Z,4.08
2018-09-30T03:23:01.258Z,3.88
2018-09-30T03:24:01.267Z,3.98
2018-09-30T03:25:01.236Z,4.04
2018-09-30T03:26:01.226Z,4.03
2018-09-30T03:27:01.211Z,4.04
2018-09-30T03:28:01.207Z,3.89
2018-09-30T03:29:01.208Z,3.98
2018-09-30T03:30:01.179Z,4.08
2018-09-30T03:31:01.167Z,4.24
2018-09-30T03:32:01.159Z,4.12
2018-09-30T03:33:01.151Z,4.12
2018-09-30T03:34:01.160Z,4.26
2018-09-30T03:35:01.118Z,4.24
2018-09-30T03:36:01.115Z,4.19
2018-09-30T03:37:01.100Z,4.24
2018-09-30T03:38:01.087Z,4.28
2018-09-30T03:39:01.077Z,4.21
2018-09-30T03:40:01.086Z,4.14
2018-09-30T03:41:01.055Z,4.10
2018-09-30T03:42:01.047Z,4.15
2018-09-30T03:43:01.033Z,4.22
2018-09-30T03:44:01.019Z,4.12
2018-09-30T03:45:01.036Z,4.01
2018-09-30T03:46:00.997Z,4.01
2018-09-30T03:47:00.979Z,3.98
2018-09-30T03:48:00.976Z,4.03
2018-09-30T03:49:00.957Z,3.92
2018-09-30T03:50:00.983Z,3.94
2018-09-30T03:51:00.936Z,3.88
2018-09-30T03:52:00.928Z,3.83
2018-09-30T03:53:00.916Z,3.88
2018-09-30T03:54:00.905Z,3.94
2018-09-30T03:55:00.891Z,3.86
2018-09-30T03:56:00.907Z,3.90
2018-09-30T03:57:00.875Z,3.85
2018-09-30T03:58:00.853Z,3.97
2018-09-30T03:59:00.842Z,3.82
2018-09-30T04:00:00.833Z,3.76
2018-09-30T04:01:00.853Z,3.76
2018-09-30T04:02:00.817Z,3.76
2018-09-30T04:03:00.808Z,3.72
2018-09-30T04:04:00.793Z,3.61
2018-09-30T04:05:00.781Z,3.67
2018-09-30T04:06:00.762Z,3.78
2018-09-30T04:07:00.778Z,3.67
2018-09-30T04:08:00.749Z,3.64
2018-09-30T04:09:00.729Z,3.61
2018-09-30T04:10:00.751Z,3.64
2018-09-30T04:11:00.706Z,3.67
2018-09-30T04:12:00.697Z,3.68
2018-09-30T04:13:00.725Z,3.70
2018-09-30T04:14:00.673Z,3.67
2018-09-30T04:15:00.661Z,3.75
2018-09-30T04:16:00.652Z,3.70
2018-09-30T04:17:00.706Z,3.80
2018-09-30T04:18:00.654Z,3.86
2018-09-30T04:19:00.612Z,3.78
2018-09-30T04:20:00.610Z,3.85
2018-09-30T04:21:00.595Z,3.86
2018-09-30T04:22:00.579Z,3.85
2018-09-30T04:23:00.597Z,3.82
2018-09-30T04:24:00.555Z,3.78
2018-09-30T04:25:00.547Z,3.71
2018-09-30T04:26:00.538Z,3.71
2018-09-30T04:27:00.531Z,3.65
2018-09-30T04:28:00.539Z,3.58
2018-09-30T04:29:00.506Z,3.53
2018-09-30T04:30:00.486Z,3.60
2018-09-30T04:31:00.481Z,3.62
2018-09-30T04:32:00.467Z,3.72
2018-09-30T04:33:00.482Z,3.78
2018-09-30T04:34:00.449Z,3.78
2018-09-30T04:35:00.433Z,3.92
2018-09-30T04:36:00.426Z,3.85
2018-09-30T04:37:00.416Z,3.80
2018-09-30T04:38:00.417Z,3.75
2018-09-30T04:39:00.383Z,3.65
2018-09-30T04:40:00.380Z,3.75
2018-09-30T04:41:00.365Z,3.82
2018-09-30T04:42:00.351Z,3.79
2018-09-30T04:43:00.365Z,3.80
2018-09-30T04:44:00.333Z,3.79
2018-09-30T04:45:00.319Z,3.71
2018-09-30T04:46:00.304Z,3.71
2018-09-30T04:47:00.293Z,3.58
2018-09-30T04:48:00.308Z,3.61
2018-09-30T04:49:00.269Z,3.50
2018-09-30T04:50:00.301Z,3.58
2018-09-30T04:51:00.244Z,3.76
2018-09-30T04:52:00.241Z,3.82
2018-09-30T04:53:00.242Z,3.90
2018-09-30T04:54:00.220Z,3.89
2018-09-30T04:55:00.201Z,3.94
2018-09-30T04:56:00.193Z,3.96
2018-09-30T04:57:00.179Z,4.04
2018-09-30T04:58:00.195Z,4.01
2018-09-30T04:59:00.159Z,4.15
2018-09-30T05:00:00.140Z,3.97
2018-09-30T05:01:00.135Z,4.01
2018-09-30T05:02:00.123Z,4.07
2018-09-30T05:03:00.136Z,4.12
2018-09-30T05:04:00.104Z,4.08
2018-09-30T05:05:00.089Z,4.10
2018-09-30T05:06:00.084Z,4.07
2018-09-30T05:07:00.059Z,4.10
2018-09-30T05:08:00.079Z,4.10
2018-09-30T05:09:00.045Z,4.00
2018-09-30T05:10:00.028Z,4.08
2018-09-30T05:11:00.015Z,4.10
2018-09-30T05:12:00.010Z,3.88
2018-09-30T05:13:00.026Z,4.01
2018-09-30T05:13:59.979Z,4.01
2018-09-30T05:14:59.971Z,3.86
2018-09-30T05:15:59.998Z,4.06
2018-09-30T05:16:59.954Z,3.90
2018-09-30T05:17:59.954Z,3.85
2018-09-30T05:18:59.924Z,3.88
2018-09-30T05:19:59.920Z,3.90
2018-09-30T05:20:59.904Z,3.94
2018-09-30T05:21:59.889Z,3.89
2018-09-30T05:22:59.910Z,3.90
2018-09-30T05:23:59.864Z,3.90
2018-09-30T05:24:59.857Z,3.96
2018-09-30T05:25:59.848Z,3.97
2018-09-30T05:26:59.835Z,3.80
2018-09-30T05:27:59.842Z,3.86
2018-09-30T05:28:59.806Z,3.98
2018-09-30T05:29:59.802Z,3.79
2018-09-30T05:30:59.788Z,3.83
2018-09-30T05:31:59.774Z,3.88
2018-09-30T05:32:59.784Z,3.89
2018-09-30T05:33:59.756Z,3.79
2018-09-30T05:34:59.747Z,3.76
2018-09-30T05:35:59.726Z,3.82
2018-09-30T05:36:59.755Z,3.75
2018-09-30T05:37:59.731Z,3.68
2018-09-30T05:38:59.697Z,3.75
2018-09-30T05:39:59.683Z,3.75
2018-09-30T05:40:59.674Z,3.68
2018-09-30T05:41:59.659Z,3.82
2018-09-30T05:42:59.677Z,3.89
2018-09-30T05:43:59.632Z,3.98
2018-09-30T05:44:59.630Z,4.06
2018-09-30T05:45:59.616Z,3.89
2018-09-30T05:46:59.601Z,3.98
2018-09-30T05:47:59.608Z,3.97
2018-09-30T05:48:59.595Z,3.98
2018-09-30T05:49:59.564Z,3.96
2018-09-30T05:50:59.558Z,4.01
2018-09-30T05:51:59.543Z,4.04
2018-09-30T05:52:59.556Z,3.97
2018-09-30T05:53:59.520Z,3.92
2018-09-30T05:54:59.516Z,3.82
2018-09-30T05:55:59.496Z,3.85
2018-09-30T05:56:59.487Z,3.71
2018-09-30T05:57:59.549Z,3.67
2018-09-30T05:58:59.466Z,3.64
2018-09-30T05:59:59.453Z,3.68
2018-09-30T06:00:59.442Z,3.47
2018-09-30T06:01:59.435Z,3.52
2018-09-30T06:02:59.436Z,3.62
2018-09-30T06:03:59.474Z,3.64
2018-09-30T06:04:59.391Z,3.68
2018-09-30T06:05:59.391Z,3.79
2018-09-30T06:06:59.377Z,3.88
2018-09-30T06:07:59.381Z,3.97
2018-09-30T06:08:59.355Z,3.97
2018-09-30T06:09:59.339Z,3.89
2018-09-30T06:10:59.323Z,4.01
2018-09-30T06:11:59.321Z,4.07
2018-09-30T06:12:59.328Z,4.12
2018-09-30T06:13:59.426Z,4.04
2018-09-30T06:14:59.279Z,4.15
2018-09-30T06:15:59.309Z,4.12
2018-09-30T06:16:59.262Z,4.21
2018-09-30T06:17:59.264Z,4.36
2018-09-30T06:18:59.240Z,4.46
2018-09-30T06:19:59.220Z,4.62
2018-09-30T06:20:59.216Z,4.72
2018-09-30T06:21:59.195Z,4.75
2018-09-30T06:22:59.211Z,4.73
2018-09-30T06:23:59.179Z,4.72
2018-09-30T06:24:59.173Z,4.65
2018-09-30T06:25:59.153Z,4.61
2018-09-30T06:26:59.148Z,4.61
2018-09-30T06:27:59.148Z,4.54
2018-09-30T06:28:59.119Z,4.50
2018-09-30T06:29:59.120Z,4.39
2018-09-30T06:30:59.097Z,4.42
2018-09-30T06:31:59.141Z,4.42
2018-09-30T06:32:59.090Z,4.43
2018-09-30T06:33:59.067Z,4.47
2018-09-30T06:34:59.046Z,4.55
2018-09-30T06:35:59.041Z,4.64
2018-09-30T06:36:59.029Z,4.47
2018-09-30T06:37:59.035Z,4.58
2018-09-30T06:38:59.001Z,4.54
2018-09-30T06:39:58.995Z,4.61
2018-09-30T06:40:58.986Z,4.75
2018-09-30T06:41:58.964Z,4.70
2018-09-30T06:42:58.980Z,4.64
2018-09-30T06:43:58.944Z,4.70
2018-09-30T06:44:59.010Z,5.13
2018-09-30T06:45:58.922Z,6.35
2018-09-30T06:46:58.916Z,8.21
2018-09-30T06:47:58.932Z,9.67
2018-09-30T06:48:58.892Z,10.81
2018-09-30T06:49:58.871Z,11.80
2018-09-30T06:50:58.959Z,12.77
2018-09-30T06:51:58.855Z,13.46
2018-09-30T06:52:58.862Z,14.38
2018-09-30T06:53:58.835Z,15.12
2018-09-30T06:54:58.820Z,15.84
2018-09-30T06:55:58.804Z,16.41
2018-09-30T06:56:58.791Z,16.99
2018-09-30T06:57:58.809Z,17.38
2018-09-30T06:58:58.775Z,17.94
2018-09-30T06:59:58.754Z,18.18
2018-09-30T07:00:58.747Z,18.57
2018-09-30T07:01:58.737Z,18.95
2018-09-30T07:02:58.749Z,18.94
2018-09-30T07:03:58.711Z,18.91
2018-09-30T07:04:58.815Z,19.05
2018-09-30T07:05:58.700Z,19.31
2018-09-30T07:06:58.679Z,19.39
2018-09-30T07:07:58.686Z,19.48
2018-09-30T07:08:58.649Z,19.39
2018-09-30T07:09:58.645Z,19.55
2018-09-30T07:10:58.702Z,19.90
2018-09-30T07:11:58.619Z,20.33
2018-09-30T07:12:58.634Z,20.41
2018-09-30T07:13:58.594Z,20.64
2018-09-30T07:14:58.580Z,20.96
2018-09-30T07:15:58.575Z,21.38
2018-09-30T07:16:58.575Z,21.75
2018-09-30T07:17:58.571Z,22.01
2018-09-30T07:18:58.535Z,22.10
2018-09-30T07:19:58.530Z,22.02
2018-09-30T07:20:58.524Z,22.29
2018-09-30T07:21:58.498Z,22.64
2018-09-30T07:22:58.516Z,22.69
2018-09-30T07:23:58.480Z,22.80
2018-09-30T07:24:58.473Z,22.77
2018-09-30T07:25:58.451Z,22.78
2018-09-30T07:26:58.442Z,22.29
2018-09-30T07:27:58.459Z,21.82
2018-09-30T07:28:58.417Z,21.78
2018-09-30T07:29:58.409Z,21.01
2018-09-30T07:30:58.396Z,20.77
2018-09-30T07:31:58.391Z,20.15
2018-09-30T07:32:58.397Z,20.28
2018-09-30T07:33:58.366Z,20.13
2018-09-30T07:34:58.349Z,20.02
2018-09-30T07:35:58.344Z,20.25
2018-09-30T07:36:58.326Z,20.00
2018-09-30T07:37:58.343Z,19.68
2018-09-30T07:38:58.309Z,19.20
2018-09-30T07:39:58.301Z,18.87
2018-09-30T07:40:58.278Z,18.90
2018-09-30T07:41:58.276Z,19.53
2018-09-30T07:42:58.280Z,20.06
2018-09-30T07:43:58.249Z,20.77
2018-09-30T07:44:58.241Z,21.20
2018-09-30T07:45:58.232Z,21.05
2018-09-30T07:46:58.216Z,20.56
2018-09-30T07:47:58.224Z,20.74
2018-09-30T07:48:58.194Z,21.59
2018-09-30T07:49:58.181Z,21.75
2018-09-30T07:50:58.168Z,22.07
2018-09-30T07:51:58.160Z,22.64
2018-09-30T07:52:58.165Z,23.26
2018-09-30T07:53:58.136Z,24.01
2018-09-30T07:54:58.122Z,24.63
2018-09-30T07:55:58.106Z,25.17
2018-09-30T07:56:58.105Z,25.65
2018-09-30T07:57:58.115Z,26.06
2018-09-30T07:58:58.074Z,26.17
2018-09-30T07:59:58.074Z,26.32
2018-09-30T08:00:58.057Z,25.72
2018-09-30T08:01:58.049Z,25.68
2018-09-30T08:02:58.031Z,26.08
2018-09-30T08:03:58.046Z,25.57
2018-09-30T08:04:58.015Z,25.42
2018-09-30T08:05:57.996Z,25.13
2018-09-30T08:06:57.991Z,24.76
2018-09-30T08:07:57.977Z,25.20
2018-09-30T08:08:57.990Z,24.91
2018-09-30T08:09:57.962Z,25.09
2018-09-30T08:10:57.945Z,24.71
2018-09-30T08:11:57.932Z,24.71
2018-09-30T08:12:57.922Z,24.90
2018-09-30T08:13:57.912Z,23.89
2018-09-30T08:14:57.928Z,23.72
2018-09-30T08:15:57.886Z,23.92
2018-09-30T08:16:57.977Z,24.69
2018-09-30T08:17:57.868Z,25.13
2018-09-30T08:18:57.851Z,25.77
2018-09-30T08:19:57.849Z,25.99
2018-09-30T08:20:57.857Z,25.69
2018-09-30T08:21:57.820Z,25.64
2018-09-30T08:22:57.809Z,26.05
2018-09-30T08:23:57.813Z,25.69
2018-09-30T08:24:57.792Z,25.44
2018-09-30T08:25:57.794Z,25.07
2018-09-30T08:26:57.772Z,24.77
2018-09-30T08:27:57.756Z,24.08
2018-09-30T08:28:57.743Z,23.01
2018-09-30T08:29:57.734Z,23.34
2018-09-30T08:30:57.742Z,23.86
2018-09-30T08:31:57.715Z,24.87
2018-09-30T08:32:57.703Z,25.20
2018-09-30T08:33:57.694Z,25.07
2018-09-30T08:34:57.676Z,24.60
2018-09-30T08:35:57.690Z,24.94
2018-09-30T08:36:57.654Z,24.24
2018-09-30T08:37:57.645Z,24.82
2018-09-30T08:38:57.629Z,24.87
2018-09-30T08:39:57.666Z,24.94
2018-09-30T08:40:57.628Z,25.52
2018-09-30T08:41:57.603Z,25.49
2018-09-30T08:42:57.586Z,25.67
2018-09-30T08:43:57.633Z,25.71
2018-09-30T08:44:57.569Z,25.64
2018-09-30T08:45:57.576Z,26.08
2018-09-30T08:46:57.549Z,26.28
2018-09-30T08:47:57.529Z,26.20
2018-09-30T08:48:57.521Z,26.44
2018-09-30T08:49:57.508Z,26.20
2018-09-30T08:50:57.525Z,26.72
2018-09-30T08:51:57.489Z,27.86
2018-09-30T08:52:57.481Z,28.63
2018-09-30T08:53:57.579Z,29.18
2018-09-30T08:54:57.457Z,29.93
2018-09-30T08:55:57.526Z,30.40
2018-09-30T08:56:57.435Z,30.81
2018-09-30T08:57:57.427Z,31.13
2018-09-30T08:58:57.418Z,31.13
2018-09-30T08:59:57.400Z,30.67
2018-09-30T09:00:57.419Z,30.62
2018-09-30T09:01:57.378Z,30.62
2018-09-30T09:02:57.403Z,30.71
2018-09-30T09:03:57.364Z,30.98
2018-09-30T09:04:57.349Z,31.27
2018-09-30T09:05:57.365Z,31.30
2018-09-30T09:06:57.328Z,31.26
2018-09-30T09:07:57.318Z,30.74
2018-09-30T09:08:57.310Z,30.27
2018-09-30T09:09:57.414Z,29.65
2018-09-30T09:10:57.310Z,29.72
2018-09-30T09:11:57.273Z,29.66
2018-09-30T09:12:57.259Z,29.59
2018-09-30T09:13:57.258Z,29.74
2018-09-30T09:14:57.237Z,29.71
2018-09-30T09:15:57.264Z,29.87
2018-09-30T09:16:57.226Z,30.26
2018-09-30T09:17:57.217Z,30.67
2018-09-30T09:18:57.208Z,30.53
2018-09-30T09:19:57.194Z,30.02
2018-09-30T09:20:57.207Z,29.59
2018-09-30T09:21:57.175Z,29.45
2018-09-30T09:22:57.161Z,29.63
2018-09-30T09:23:57.149Z,30.03
2018-09-30T09:24:57.147Z,29.99
2018-09-30T09:25:57.156Z,29.56
2018-09-30T09:26:57.125Z,29.03
2018-09-30T09:27:57.171Z,28.91
2018-09-30T09:28:57.099Z,29.00
2018-09-30T09:29:57.097Z,29.28
2018-09-30T09:30:57.106Z,29.75
2018-09-30T09:31:57.071Z,30.00
2018-09-30T09:32:57.116Z,30.38
2018-09-30T09:33:57.052Z,30.37
2018-09-30T09:34:57.077Z,30.68
2018-09-30T09:35:57.051Z,30.64
2018-09-30T09:36:57.058Z,30.16
2018-09-30T09:37:57.010Z,29.63
2018-09-30T09:38:57.005Z,29.55
2018-09-30T09:39:56.994Z,29.31
2018-09-30T09:40:57.002Z,29.35
2018-09-30T09:41:56.975Z,29.79
2018-09-30T09:42:56.962Z,30.29
2018-09-30T09:43:56.954Z,30.81
2018-09-30T09:44:56.948Z,30.93
2018-09-30T09:45:56.951Z,30.46
2018-09-30T09:46:56.972Z,30.74
2018-09-30T09:47:56.911Z,30.96
2018-09-30T09:48:56.901Z,31.11
2018-09-30T09:49:56.894Z,31.11
2018-09-30T09:50:56.907Z,31.40
2018-09-30T09:51:56.867Z,31.50
2018-09-30T09:52:56.853Z,31.77
2018-09-30T09:53:56.850Z,31.61
2018-09-30T09:54:56.839Z,30.54
2018-09-30T09:55:56.843Z,30.00
2018-09-30T09:56:56.818Z,30.31
2018-09-30T09:57:56.797Z,30.75
2018-09-30T09:58:56.858Z,31.35
2018-09-30T09:59:56.778Z,32.00
2018-09-30T10:00:56.791Z,31.93
2018-09-30T10:01:56.758Z,32.25
2018-09-30T10:02:56.744Z,32.21
2018-09-30T10:03:56.743Z,32.49
2018-09-30T10:04:56.756Z,32.40
2018-09-30T10:05:56.736Z,32.00
2018-09-30T10:06:56.704Z,31.55
2018-09-30T10:07:56.694Z,31.17
2018-09-30T10:08:56.687Z,30.90
2018-09-30T10:09:56.668Z,31.01
2018-09-30T10:10:56.678Z,31.46
2018-09-30T10:11:56.686Z,31.04
2018-09-30T10:12:56.693Z,31.05
2018-09-30T10:13:56.626Z,31.33
2018-09-30T10:14:56.616Z,31.55
2018-09-30T10:15:56.630Z,31.48
2018-09-30T10:16:56.598Z,31.87
2018-09-30T10:17:56.580Z,31.91
2018-09-30T10:18:56.575Z,32.47
2018-09-30T10:19:56.556Z,32.69
2018-09-30T10:20:56.570Z,31.72
2018-09-30T10:21:56.541Z,31.36
2018-09-30T10:22:56.529Z,31.39
2018-09-30T10:23:56.515Z,31.75
2018-09-30T10:24:56.501Z,31.60
2018-09-30T10:25:56.522Z,31.49
2018-09-30T10:26:56.482Z,31.67
2018-09-30T10:27:56.469Z,31.85
2018-09-30T10:28:56.466Z,31.57
2018-09-30T10:29:56.446Z,31.55
2018-09-30T10:30:56.464Z,31.75
2018-09-30T10:31:56.428Z,32.10
2018-09-30T10:32:56.419Z,31.91
2018-09-30T10:33:56.405Z,31.43
2018-09-30T10:34:56.396Z,31.15
2018-09-30T10:35:56.406Z,31.24
2018-09-30T10:36:56.374Z,31.27
2018-09-30T10:37:56.412Z,31.49
2018-09-30T10:38:56.479Z,31.96
2018-09-30T10:39:56.339Z,32.03
2018-09-30T10:40:56.369Z,32.00
2018-09-30T10:41:56.327Z,31.68
2018-09-30T10:42:56.310Z,31.62
2018-09-30T10:43:56.308Z,31.75
2018-09-30T10:44:56.300Z,31.38
2018-09-30T10:45:56.312Z,31.38
2018-09-30T10:46:56.281Z,30.94
2018-09-30T10:47:56.264Z,30.23
2018-09-30T10:48:56.252Z,30.76
2018-09-30T10:49:56.251Z,31.28
2018-09-30T10:50:56.266Z,31.09
2018-09-30T10:51:56.223Z,31.13
2018-09-30T10:52:56.214Z,31.53
2018-09-30T10:53:56.208Z,31.88
2018-09-30T10:54:56.193Z,31.75
2018-09-30T10:55:56.208Z,31.62
2018-09-30T10:56:56.267Z,31.58
2018-09-30T10:57:56.169Z,31.62
2018-09-30T10:58:56.152Z,31.95
2018-09-30T10:59:56.145Z,32.17
2018-09-30T11:00:56.159Z,32.36
2018-09-30T11:01:56.161Z,32.25
2018-09-30T11:02:56.107Z,31.53
2018-09-30T11:03:56.098Z,30.09
2018-09-30T11:04:56.342Z,29.68
2018-09-30T11:05:56.111Z,29.40
2018-09-30T11:06:56.066Z,29.99
2018-09-30T11:07:56.057Z,30.67
2018-09-30T11:08:56.036Z,30.74
2018-09-30T11:09:56.027Z,31.05
2018-09-30T11:10:56.032Z,31.42
2018-09-30T11:11:56.004Z,31.12
2018-09-30T11:12:55.994Z,30.30
2018-09-30T11:13:55.976Z,30.47
2018-09-30T11:14:55.972Z,30.37
2018-09-30T11:15:56.001Z,29.59
2018-09-30T11:16:55.971Z,28.88
2018-09-30T11:17:55.944Z,28.31
2018-09-30T11:18:55.934Z,27.74
2018-09-30T11:19:55.914Z,27.95
2018-09-30T11:20:55.934Z,28.75
2018-09-30T11:21:55.898Z,29.68
2018-09-30T11:22:55.891Z,29.97
2018-09-30T11:23:55.871Z,30.30
2018-09-30T11:24:55.865Z,30.57
2018-09-30T11:25:55.857Z,30.91
2018-09-30T11:26:55.868Z,30.81
2018-09-30T11:27:55.835Z,29.93
2018-09-30T11:28:55.819Z,29.34
2018-09-30T11:29:55.815Z,29.26
2018-09-30T11:30:55.805Z,29.75
2018-09-30T11:31:55.891Z,29.40
2018-09-30T11:32:55.777Z,29.68
2018-09-30T11:33:55.764Z,29.74
2018-09-30T11:34:55.760Z,29.68
2018-09-30T11:35:55.746Z,29.44
2018-09-30T11:36:55.764Z,29.74
2018-09-30T11:37:55.724Z,30.30
2018-09-30T11:38:55.716Z,30.54
2018-09-30T11:39:55.720Z,30.57
2018-09-30T11:40:55.695Z,30.75
2018-09-30T11:41:55.705Z,31.17
2018-09-30T11:42:55.671Z,31.58
2018-09-30T11:43:55.662Z,31.55
2018-09-30T11:44:55.649Z,31.17
2018-09-30T11:45:55.643Z,31.02
2018-09-30T11:46:55.646Z,30.37
2018-09-30T11:47:55.624Z,30.56
2018-09-30T11:48:55.603Z,30.47
2018-09-30T11:49:55.602Z,29.44
2018-09-30T11:50:55.591Z,29.68
2018-09-30T11:51:55.597Z,29.45
2018-09-30T11:52:55.563Z,29.68
2018-09-30T11:53:55.555Z,29.40
2018-09-30T11:54:55.591Z,29.90
2018-09-30T11:55:55.619Z,29.31
2018-09-30T11:56:55.546Z,29.72
2018-09-30T11:57:55.506Z,30.00
2018-09-30T11:58:55.499Z,29.33
2018-09-30T11:59:55.486Z,29.31
2018-09-30T12:00:55.474Z,29.40
2018-09-30T12:01:55.493Z,29.57
2018-09-30T12:02:55.461Z,29.56
2018-09-30T12:03:55.438Z,29.31
2018-09-30T12:04:55.438Z,29.75
2018-09-30T12:05:55.587Z,29.90
2018-09-30T12:06:56.504Z,30.24
2018-09-30T12:07:55.406Z,29.78
2018-09-30T12:08:55.390Z,29.13
2018-09-30T12:09:55.376Z,29.10
2018-09-30T12:10:55.365Z,28.53
2018-09-30T12:11:55.383Z,28.06
2018-09-30T12:12:55.365Z,28.69
2018-09-30T12:13:55.334Z,28.88
2018-09-30T12:14:55.322Z,28.80
2018-09-30T12:15:55.314Z,28.96
2018-09-30T12:16:55.330Z,29.59
2018-09-30T12:17:55.288Z,30.03
2018-09-30T12:18:56.031Z,29.78
2018-09-30T12:19:55.275Z,30.03
2018-09-30T12:20:55.256Z,30.05
2018-09-30T12:21:55.269Z,30.21
2018-09-30T12:22:55.241Z,30.52
2018-09-30T12:23:55.225Z,30.24
2018-09-30T12:24:55.217Z,29.75
2018-09-30T12:25:55.339Z,29.56
2018-09-30T12:26:55.222Z,29.93
2018-09-30T12:27:55.186Z,30.38
2018-09-30T12:28:55.172Z,30.00
2018-09-30T12:29:55.165Z,29.37
2018-09-30T12:30:55.149Z,29.35
2018-09-30T12:31:55.169Z,29.65
2018-09-30T12:32:55.128Z,29.93
2018-09-30T12:33:55.125Z,30.54
2018-09-30T12:34:55.108Z,31.36
2018-09-30T12:35:55.109Z,31.80
2018-09-30T12:36:55.163Z,31.45
2018-09-30T12:37:55.081Z,30.98
2018-09-30T12:38:55.063Z,31.24
2018-09-30T12:39:55.062Z,31.45
2018-09-30T12:40:55.047Z,31.72
2018-09-30T12:41:55.060Z,31.38
2018-09-30T12:42:55.024Z,31.38
2018-09-30T12:43:55.011Z,31.64
2018-09-30T12:44:55.005Z,31.55
2018-09-30T12:45:54.990Z,31.48
2018-09-30T12:46:55.002Z,31.11
2018-09-30T12:47:54.974Z,31.40
2018-09-30T12:48:54.958Z,31.30
2018-09-30T12:49:54.951Z,30.84
2018-09-30T12:50:54.939Z,30.75
2018-09-30T12:51:54.955Z,30.86
2018-09-30T12:52:54.911Z,30.53
2018-09-30T12:53:54.903Z,30.38
2018-09-30T12:54:54.900Z,30.46
2018-09-30T12:55:54.880Z,30.18
2018-09-30T12:56:54.900Z,30.26
2018-09-30T12:57:54.918Z,30.36
2018-09-30T12:58:54.851Z,30.69
2018-09-30T12:59:54.846Z,30.47
2018-09-30T13:00:54.835Z,30.49
2018-09-30T13:01:54.838Z,30.52
2018-09-30T13:02:54.809Z,30.84
2018-09-30T13:03:54.795Z,30.34
2018-09-30T13:04:54.781Z,29.59